createdAt,value
2023-01-10T00:01:32.296Z,57.76
2023-01-10T00:03:33.858Z,57.33
2023-01-10T00:05:36.322Z,57.19
2023-01-10T00:07:37.922Z,57.60
2023-01-10T00:09:39.508Z,57.33
2023-01-10T00:11:41.268Z,57.54
2023-01-10T00:13:44.269Z,57.66
2023-01-10T00:15:46.074Z,57.91
2023-01-10T00:17:47.776Z,57.57
2023-01-10T00:19:49.428Z,57.00
2023-01-10T00:21:51.161Z,57.40
2023-01-10T00:23:52.878Z,57.05
2023-01-10T00:25:54.549Z,56.15
2023-01-10T00:27:56.637Z,56.36
2023-01-10T00:29:59.622Z,56.44
2023-01-10T00:32:01.569Z,55.75
2023-01-10T00:34:03.227Z,56.06
2023-01-10T00:36:06.947Z,55.93
2023-01-10T00:38:08.616Z,55.75
2023-01-10T00:40:12.114Z,55.88
2023-01-10T00:42:13.767Z,55.71
2023-01-10T00:44:15.403Z,55.30
2023-01-10T00:46:18.384Z,55.96
2023-01-10T00:48:20.523Z,55.39
2023-01-10T00:50:22.163Z,55.56
2023-01-10T00:52:23.838Z,55.34
2023-01-10T00:54:26.028Z,55.94
2023-01-10T00:56:27.659Z,56.05
2023-01-10T00:58:29.296Z,56.13
2023-01-10T01:00:31.027Z,55.71
2023-01-10T01:02:34.273Z,55.61
2023-01-10T01:04:35.999Z,54.17
2023-01-10T01:06:37.701Z,54.26
2023-01-10T01:08:39.535Z,54.65
2023-01-10T01:10:41.250Z,54.28
2023-01-10T01:12:42.933Z,54.20
2023-01-10T01:14:45.687Z,54.22
2023-01-10T01:16:47.438Z,53.88
2023-01-10T01:18:50.680Z,54.04
2023-01-10T01:20:53.712Z,54.35
2023-01-10T01:22:55.355Z,53.58
2023-01-10T01:24:57.010Z,53.96
2023-01-10T01:26:58.705Z,53.91
2023-01-10T01:29:00.366Z,53.54
2023-01-10T01:31:07.342Z,53.48
2023-01-10T01:33:09.200Z,54.24
2023-01-10T01:35:15.243Z,54.08
2023-01-10T01:37:16.907Z,54.02
2023-01-10T01:39:18.518Z,53.76
2023-01-10T01:41:20.281Z,54.07
2023-01-10T01:43:26.816Z,53.56
2023-01-10T01:45:39.466Z,53.68
2023-01-10T01:47:44.890Z,53.59
2023-01-10T01:49:46.766Z,53.19
2023-01-10T01:51:56.570Z,52.97
2023-01-10T01:54:01.484Z,53.07
2023-01-10T01:56:08.003Z,52.86
2023-01-10T01:58:14.680Z,53.10
2023-01-10T02:00:16.787Z,53.13
2023-01-10T02:02:22.034Z,52.94
2023-01-10T02:04:28.918Z,53.43
2023-01-10T02:06:30.761Z,53.32
2023-01-10T02:08:34.117Z,53.04
2023-01-10T02:10:41.907Z,53.36
2023-01-10T02:12:45.678Z,52.98
2023-01-10T02:14:50.312Z,53.78
2023-01-10T02:16:54.628Z,53.94
2023-01-10T02:18:56.791Z,54.05
2023-01-10T02:21:16.793Z,53.46
2023-01-10T02:23:51.002Z,53.39
2023-01-10T02:26:30.640Z,53.52
2023-01-10T02:28:54.602Z,53.65
2023-01-10T02:31:15.680Z,53.79
2023-01-10T02:33:25.384Z,53.77
2023-01-10T02:35:47.297Z,53.83
2023-01-10T02:38:00.095Z,53.74
2023-01-10T02:40:07.860Z,53.38
2023-01-10T02:42:14.967Z,53.21
2023-01-10T02:44:21.771Z,53.36
2023-01-10T02:46:28.347Z,52.98
2023-01-10T02:48:31.398Z,52.91
2023-01-10T02:50:55.596Z,53.50
2023-01-10T02:53:00.447Z,53.47
2023-01-10T02:55:03.552Z,53.37
2023-01-10T02:57:29.108Z,53.72
2023-01-10T03:00:15.118Z,53.23
2023-01-10T03:02:28.174Z,53.56
2023-01-10T03:04:49.015Z,52.85
2023-01-10T03:06:58.327Z,53.22
2023-01-10T03:09:07.460Z,52.63
2023-01-10T03:11:10.900Z,52.32
2023-01-10T03:13:19.901Z,51.61
2023-01-10T03:15:23.308Z,52.31
2023-01-10T03:17:28.113Z,51.69
2023-01-10T03:19:32.932Z,52.11
2023-01-10T03:21:43.164Z,51.94
2023-01-10T03:23:47.495Z,51.56
2023-01-10T03:25:52.039Z,52.26
2023-01-10T03:28:00.456Z,51.87
2023-01-10T03:30:08.123Z,51.93
2023-01-10T03:32:11.830Z,52.36
2023-01-10T03:34:14.506Z,51.85
2023-01-10T03:36:20.935Z,51.83
2023-01-10T03:38:29.812Z,52.34
2023-01-10T03:40:36.476Z,52.90
2023-01-10T03:42:48.169Z,52.27
2023-01-10T03:44:59.287Z,52.53
2023-01-10T03:47:08.040Z,51.76
2023-01-10T03:49:11.475Z,51.78
2023-01-10T03:51:15.373Z,51.80
2023-01-10T03:53:17.303Z,51.32
2023-01-10T03:55:22.926Z,51.81
2023-01-10T03:57:24.979Z,51.87
2023-01-10T03:59:28.335Z,52.39
2023-01-10T04:01:30.091Z,52.35
2023-01-10T04:03:34.602Z,52.26
2023-01-10T04:05:36.235Z,51.96
2023-01-10T04:07:38.019Z,52.21
2023-01-10T04:09:39.708Z,52.30
2023-01-10T04:11:42.686Z,52.51
2023-01-10T04:13:44.316Z,51.96
2023-01-10T04:15:45.995Z,51.98
2023-01-10T04:17:48.183Z,52.19
2023-01-10T04:19:49.778Z,52.17
2023-01-10T04:21:51.886Z,52.15
2023-01-10T04:23:53.513Z,52.08
2023-01-10T04:25:55.154Z,52.16
2023-01-10T04:27:58.328Z,52.29
2023-01-10T04:29:59.925Z,52.17
2023-01-10T04:32:01.588Z,52.45
2023-01-10T04:34:03.237Z,52.09
2023-01-10T04:36:05.169Z,52.57
2023-01-10T04:38:06.774Z,52.46
2023-01-10T04:40:09.664Z,52.54
2023-01-10T04:42:11.449Z,52.94
2023-01-10T04:44:14.461Z,52.81
2023-01-10T04:46:16.179Z,52.44
2023-01-10T04:48:17.859Z,52.53
2023-01-10T04:50:19.530Z,52.29
2023-01-10T04:52:21.245Z,52.47
2023-01-10T04:54:23.255Z,52.74
2023-01-10T04:56:25.383Z,53.01
2023-01-10T04:58:26.995Z,52.66
2023-01-10T05:00:29.998Z,52.48
2023-01-10T05:02:31.643Z,52.49
2023-01-10T05:04:33.336Z,52.54
2023-01-10T05:06:34.947Z,52.82
2023-01-10T05:08:36.539Z,52.91
2023-01-10T05:10:38.285Z,52.85
2023-01-10T05:12:40.189Z,52.74
2023-01-10T05:14:41.837Z,52.73
2023-01-10T05:16:45.119Z,52.81
2023-01-10T05:18:47.228Z,53.11
2023-01-10T05:20:49.635Z,53.01
2023-01-10T05:22:51.551Z,52.79
2023-01-10T05:24:54.645Z,52.99
2023-01-10T05:26:56.519Z,52.34
2023-01-10T05:28:58.338Z,52.39
2023-01-10T05:31:00.028Z,52.77
2023-01-10T05:33:05.467Z,52.07
2023-01-10T05:35:07.888Z,52.29
2023-01-10T05:37:09.567Z,52.24
2023-01-10T05:39:11.327Z,52.18
2023-01-10T05:41:13.257Z,52.65
2023-01-10T05:43:14.867Z,52.78
2023-01-10T05:45:19.379Z,52.50
2023-01-10T05:47:21.509Z,52.29
2023-01-10T05:49:24.691Z,52.54
2023-01-10T05:51:26.431Z,52.12
2023-01-10T05:53:28.153Z,51.75
2023-01-10T05:55:29.783Z,52.77
2023-01-10T05:57:31.436Z,52.10
2023-01-10T05:59:33.069Z,52.44
2023-01-10T06:01:34.849Z,52.89
2023-01-10T06:03:36.771Z,52.38
2023-01-10T06:05:39.880Z,52.10
2023-01-10T06:07:41.495Z,52.22
2023-01-10T06:09:43.222Z,52.04
2023-01-10T06:11:44.890Z,52.64
2023-01-10T06:13:46.534Z,52.25
2023-01-10T06:15:48.504Z,52.56
2023-01-10T06:17:50.209Z,51.92
2023-01-10T06:19:51.879Z,51.67
2023-01-10T06:21:57.209Z,51.85
2023-01-10T06:23:59.000Z,51.36
2023-01-10T06:26:00.625Z,51.20
2023-01-10T06:28:02.603Z,51.66
2023-01-10T06:30:05.180Z,51.22
2023-01-10T06:32:07.203Z,51.35
2023-01-10T06:34:08.939Z,51.99
2023-01-10T06:36:11.973Z,50.75
2023-01-10T06:38:15.173Z,51.22
2023-01-10T06:40:17.677Z,51.43
2023-01-10T06:42:19.328Z,51.31
2023-01-10T06:44:21.027Z,51.50
2023-01-10T06:46:22.897Z,51.06
2023-01-10T06:48:24.625Z,50.65
2023-01-10T06:50:28.958Z,51.72
2023-01-10T06:52:31.167Z,52.07
2023-01-10T06:54:34.265Z,51.24
2023-01-10T06:56:35.917Z,51.65
2023-01-10T06:58:37.651Z,51.92
2023-01-10T07:00:39.500Z,51.63
2023-01-10T07:02:41.117Z,51.83
2023-01-10T07:04:42.780Z,51.87
2023-01-10T07:06:44.619Z,51.75
2023-01-10T07:08:46.835Z,51.64
2023-01-10T07:10:49.893Z,51.23
2023-01-10T07:12:51.591Z,51.22
2023-01-10T07:14:53.241Z,51.63
2023-01-10T07:16:54.858Z,51.57
2023-01-10T07:18:56.555Z,51.88
2023-01-10T07:20:58.290Z,51.97
2023-01-10T07:23:00.701Z,52.13
2023-01-10T07:25:02.308Z,52.25
2023-01-10T07:27:05.419Z,52.28
2023-01-10T07:29:07.157Z,52.39
2023-01-10T07:31:10.262Z,52.53
2023-01-10T07:33:11.929Z,52.80
2023-01-10T07:35:13.635Z,52.90
2023-01-10T07:37:15.358Z,52.97
2023-01-10T07:39:16.957Z,53.07
2023-01-10T07:41:19.112Z,52.83
2023-01-10T07:43:22.236Z,52.36
2023-01-10T07:45:23.957Z,52.96
2023-01-10T07:47:25.658Z,52.65
2023-01-10T07:49:27.393Z,52.75
2023-01-10T07:51:28.983Z,53.19
2023-01-10T07:53:31.021Z,53.33
2023-01-10T07:55:32.760Z,53.19
2023-01-10T07:57:34.548Z,53.22
2023-01-10T07:59:37.802Z,53.32
2023-01-10T08:01:39.497Z,53.20
2023-01-10T08:03:41.458Z,53.05
2023-01-10T08:05:43.401Z,53.03
2023-01-10T08:07:45.123Z,52.99
2023-01-10T08:09:46.824Z,53.03
2023-01-10T08:11:48.487Z,52.52
2023-01-10T08:13:50.659Z,52.26
2023-01-10T08:15:53.740Z,52.46
2023-01-10T08:17:55.479Z,52.50
2023-01-10T08:19:57.174Z,52.68
2023-01-10T08:21:58.833Z,52.54
2023-01-10T08:24:01.128Z,52.68
2023-01-10T08:26:02.863Z,53.19
2023-01-10T08:28:04.653Z,52.71
2023-01-10T08:30:07.623Z,52.33
2023-01-10T08:32:11.479Z,52.14
2023-01-10T08:34:13.779Z,52.47
2023-01-10T08:36:16.206Z,52.52
2023-01-10T08:38:17.954Z,52.78
2023-01-10T08:40:19.619Z,52.62
2023-01-10T08:42:21.714Z,53.05
2023-01-10T08:44:23.758Z,52.75
2023-01-10T08:46:25.652Z,53.26
2023-01-10T08:48:29.451Z,52.95
2023-01-10T08:50:31.724Z,53.07
2023-01-10T08:52:33.432Z,52.96
2023-01-10T08:54:35.493Z,53.31
2023-01-10T08:56:37.237Z,53.11
2023-01-10T08:58:39.502Z,52.80
2023-01-10T09:00:41.440Z,52.82
2023-01-10T09:02:43.710Z,53.10
2023-01-10T09:04:46.878Z,53.23
2023-01-10T09:06:48.521Z,52.79
2023-01-10T09:08:50.407Z,53.28
2023-01-10T09:10:52.132Z,53.09
2023-01-10T09:12:53.735Z,53.26
2023-01-10T09:14:55.447Z,53.30
2023-01-10T09:16:59.102Z,53.19
2023-01-10T09:19:00.858Z,52.98
2023-01-10T09:21:04.091Z,53.13
2023-01-10T09:23:06.917Z,52.17
2023-01-10T09:25:08.634Z,52.79
2023-01-10T09:27:10.660Z,52.91
2023-01-10T09:29:12.289Z,53.21
2023-01-10T09:31:13.942Z,53.39
2023-01-10T09:33:16.937Z,54.19
2023-01-10T09:35:18.990Z,53.57
2023-01-10T09:37:23.609Z,54.15
2023-01-10T09:39:25.460Z,54.05
2023-01-10T09:42:04.453Z,54.03
2023-01-10T09:44:17.920Z,53.60
2023-01-10T09:46:27.761Z,53.84
2023-01-10T09:48:40.319Z,53.58
2023-01-10T09:50:55.676Z,52.90
2023-01-10T09:53:05.689Z,52.34
2023-01-10T09:55:19.126Z,52.47
2023-01-10T09:57:22.704Z,52.62
2023-01-10T09:59:26.418Z,52.84
2023-01-10T10:01:33.376Z,53.14
2023-01-10T10:03:42.275Z,53.17
2023-01-10T10:05:45.642Z,52.60
2023-01-10T10:07:53.410Z,52.72
2023-01-10T10:09:56.463Z,53.53
2023-01-10T10:12:19.502Z,52.70
2023-01-10T10:14:33.826Z,52.08
2023-01-10T10:16:44.348Z,52.63
2023-01-10T10:18:57.893Z,53.01
2023-01-10T10:21:15.347Z,53.03
2023-01-10T10:23:44.507Z,53.23
2023-01-10T10:26:02.630Z,52.97
2023-01-10T10:28:19.030Z,52.83
2023-01-10T10:30:32.072Z,52.69
2023-01-10T10:33:06.785Z,53.07
2023-01-10T10:35:15.386Z,52.90
2023-01-10T10:37:22.146Z,53.61
2023-01-10T10:39:31.864Z,52.91
2023-01-10T10:41:38.329Z,53.17
2023-01-10T10:43:46.328Z,52.97
2023-01-10T10:45:52.490Z,52.93
2023-01-10T10:47:59.838Z,52.71
2023-01-10T10:50:11.650Z,53.00
2023-01-10T10:52:22.341Z,52.72
2023-01-10T10:54:24.024Z,52.74
2023-01-10T10:56:27.387Z,52.54
2023-01-10T10:58:31.462Z,53.22
2023-01-10T11:00:36.370Z,52.95
2023-01-10T11:02:43.441Z,52.64
2023-01-10T11:04:48.497Z,52.54
2023-01-10T11:06:50.841Z,52.40
2023-01-10T11:08:56.081Z,52.02
2023-01-10T11:11:02.287Z,52.00
2023-01-10T11:13:13.147Z,52.18
2023-01-10T11:15:37.432Z,52.15
2023-01-10T11:17:39.237Z,51.89
2023-01-10T11:20:00.859Z,52.61
2023-01-10T11:22:06.055Z,52.56
2023-01-10T11:24:21.159Z,53.09
2023-01-10T11:26:26.520Z,52.90
2023-01-10T11:28:32.625Z,52.97
2023-01-10T11:30:36.159Z,52.97
2023-01-10T11:32:40.362Z,53.64
2023-01-10T11:34:47.368Z,53.53
2023-01-10T11:36:53.879Z,52.87
2023-01-10T11:39:00.935Z,53.30
2023-01-10T11:41:21.171Z,53.51
2023-01-10T11:43:42.013Z,53.81
2023-01-10T11:45:45.687Z,53.97
2023-01-10T11:48:02.024Z,53.58
2023-01-10T11:50:20.179Z,53.21
2023-01-10T11:52:27.043Z,53.30
2023-01-10T11:54:33.561Z,53.65
2023-01-10T11:56:48.705Z,53.59
2023-01-10T11:58:55.731Z,53.88
2023-01-10T12:00:59.195Z,53.11
2023-01-10T12:03:01.568Z,53.02
2023-01-10T12:05:07.343Z,52.18
2023-01-10T12:07:12.010Z,51.67
2023-01-10T12:09:37.528Z,51.54
2023-01-10T12:11:39.261Z,51.14
2023-01-10T12:13:46.903Z,51.10
2023-01-10T12:15:49.128Z,50.94
2023-01-10T12:17:55.413Z,50.03
2023-01-10T12:20:01.967Z,49.90
2023-01-10T12:22:09.847Z,50.38
2023-01-10T12:24:16.813Z,50.97
2023-01-10T12:26:19.182Z,50.99
2023-01-10T12:28:24.224Z,49.87
2023-01-10T12:30:34.807Z,49.93
2023-01-10T12:32:44.693Z,50.35
2023-01-10T12:34:58.837Z,50.07
2023-01-10T12:37:08.921Z,50.06
2023-01-10T12:39:15.074Z,50.31
2023-01-10T12:41:22.758Z,50.39
2023-01-10T12:43:29.932Z,50.08
2023-01-10T12:45:42.692Z,50.88
2023-01-10T12:48:02.300Z,51.42
2023-01-10T12:50:20.284Z,50.42
2023-01-10T12:52:37.440Z,51.10
2023-01-10T12:54:39.150Z,50.92
2023-01-10T12:56:41.515Z,51.02
2023-01-10T12:58:47.910Z,51.04
2023-01-10T13:00:55.276Z,50.99
2023-01-10T13:05:35.829Z,50.21
2023-01-10T13:07:38.392Z,50.69
2023-01-10T13:09:42.432Z,51.22
2023-01-10T13:11:53.326Z,51.44
2023-01-10T13:14:00.074Z,50.66
2023-01-10T13:16:21.283Z,49.78
2023-01-10T13:18:26.317Z,50.05
2023-01-10T13:20:40.691Z,50.42
2023-01-10T13:22:47.323Z,50.19
2023-01-10T13:24:56.223Z,49.99
2023-01-10T13:27:00.213Z,49.91
2023-01-10T13:29:02.209Z,49.79
2023-01-10T13:31:05.749Z,49.82
2023-01-10T13:33:19.712Z,49.71
2023-01-10T13:35:36.662Z,49.08
2023-01-10T13:37:42.294Z,49.92
2023-01-10T13:39:45.486Z,49.94
2023-01-10T13:42:23.325Z,47.82
2023-01-10T13:44:25.043Z,48.22
2023-01-10T13:46:48.751Z,47.52
2023-01-10T13:49:30.670Z,46.97
2023-01-10T13:51:35.131Z,47.27
2023-01-10T13:53:57.617Z,48.07
2023-01-10T13:55:59.494Z,47.90
2023-01-10T13:58:31.178Z,46.83
2023-01-10T14:00:54.763Z,47.09
2023-01-10T14:02:59.080Z,47.10
2023-01-10T14:05:03.361Z,47.28
2023-01-10T14:07:12.805Z,47.76
2023-01-10T14:09:39.839Z,48.43
2023-01-10T14:11:51.381Z,48.08
2023-01-10T14:13:55.640Z,47.93
2023-01-10T14:15:58.165Z,47.56
2023-01-10T14:18:02.193Z,47.99
2023-01-10T14:20:17.724Z,48.43
2023-01-10T14:22:27.140Z,47.86
2023-01-10T14:24:35.806Z,48.15
2023-01-10T14:26:40.749Z,47.96
2023-01-10T14:28:42.690Z,47.76
2023-01-10T14:30:45.813Z,48.41
2023-01-10T14:32:49.974Z,48.94
2023-01-10T14:34:52.874Z,48.90
2023-01-10T14:36:59.208Z,49.01
2023-01-10T14:39:05.018Z,49.03
2023-01-10T14:41:21.130Z,49.25
2023-01-10T14:43:28.335Z,49.29
2023-01-10T14:45:34.409Z,49.21
2023-01-10T14:47:36.186Z,49.06
2023-01-10T14:49:52.522Z,49.23
2023-01-10T14:52:12.585Z,48.53
2023-01-10T14:54:15.124Z,49.07
2023-01-10T14:56:21.476Z,48.82
2023-01-10T14:58:24.911Z,49.30
2023-01-10T15:00:29.437Z,48.87
2023-01-10T15:02:36.501Z,48.94
2023-01-10T15:04:47.236Z,48.60
2023-01-10T15:06:54.169Z,49.35
2023-01-10T15:08:58.598Z,49.69
2023-01-10T15:11:03.641Z,49.32
2023-01-10T15:13:06.331Z,49.69
2023-01-10T15:15:15.434Z,49.57
2023-01-10T15:17:20.511Z,49.70
2023-01-10T15:19:24.185Z,49.80
2023-01-10T15:21:25.971Z,49.90
2023-01-10T15:23:34.864Z,49.87
2023-01-10T15:25:39.026Z,50.04
2023-01-10T15:27:45.870Z,49.72
2023-01-10T15:29:47.589Z,49.88
2023-01-10T15:31:51.752Z,50.06
2023-01-10T15:33:53.536Z,50.09
2023-01-10T15:35:55.664Z,50.10
2023-01-10T15:38:02.515Z,49.95
2023-01-10T15:40:07.741Z,50.47
2023-01-10T15:42:12.053Z,50.40
2023-01-10T15:44:31.290Z,50.16
2023-01-10T15:46:36.280Z,50.66
2023-01-10T15:48:40.807Z,50.74
2023-01-10T15:50:54.647Z,50.86
2023-01-10T15:52:58.903Z,50.78
2023-01-10T15:55:01.034Z,50.55
2023-01-10T15:57:07.667Z,50.56
2023-01-10T15:59:22.767Z,50.43
2023-01-10T16:01:28.686Z,49.82
2023-01-10T16:03:34.132Z,49.75
2023-01-10T16:05:37.322Z,49.93
2023-01-10T16:07:44.164Z,49.71
2023-01-10T16:09:53.854Z,49.46
2023-01-10T16:11:59.136Z,49.49
2023-01-10T16:14:00.838Z,49.63
2023-01-10T16:16:06.404Z,49.81
2023-01-10T16:18:08.240Z,49.66
2023-01-10T16:20:13.033Z,49.98
2023-01-10T16:22:18.636Z,49.98
2023-01-10T16:24:22.873Z,49.83
2023-01-10T16:26:24.671Z,49.63
2023-01-10T16:28:28.124Z,49.58
2023-01-10T16:30:31.981Z,49.44
2023-01-10T16:32:33.619Z,49.82
2023-01-10T16:34:35.244Z,49.52
2023-01-10T16:36:39.490Z,49.31
2023-01-10T16:38:43.369Z,49.60
2023-01-10T16:40:49.818Z,49.11
2023-01-10T16:42:51.492Z,49.38
2023-01-10T16:44:53.270Z,48.94
2023-01-10T16:46:54.953Z,48.85
2023-01-10T16:48:56.682Z,48.89
2023-01-10T16:51:15.844Z,48.19
2023-01-10T16:53:19.288Z,49.00
2023-01-10T16:55:26.909Z,48.25
2023-01-10T16:57:28.628Z,48.48
2023-01-10T16:59:30.316Z,48.52
2023-01-10T17:01:36.842Z,48.59
2023-01-10T17:03:39.289Z,48.50
2023-01-10T17:05:41.457Z,48.72
2023-01-10T17:07:43.137Z,49.04
2023-01-10T17:09:44.831Z,49.08
2023-01-10T17:11:50.508Z,48.94
2023-01-10T17:13:52.561Z,49.02
2023-01-10T17:15:54.272Z,49.63
2023-01-10T17:17:56.025Z,49.72
2023-01-10T17:19:59.407Z,49.57
2023-01-10T17:22:01.076Z,49.79
2023-01-10T17:24:02.755Z,49.73
2023-01-10T17:26:05.602Z,49.66
2023-01-10T17:28:10.120Z,49.71
2023-01-10T17:30:13.136Z,49.82
2023-01-10T17:32:14.808Z,49.54
2023-01-10T17:34:16.533Z,49.48
2023-01-10T17:36:19.503Z,49.45
2023-01-10T17:38:21.676Z,49.48
2023-01-10T17:40:23.637Z,49.64
2023-01-10T17:42:25.893Z,49.51
2023-01-10T17:44:30.265Z,49.11
2023-01-10T17:46:32.442Z,49.39
2023-01-10T17:48:34.128Z,49.47
2023-01-10T17:50:36.197Z,49.45
2023-01-10T17:52:37.812Z,49.21
2023-01-10T17:54:39.500Z,49.25
2023-01-10T17:56:41.276Z,49.26
2023-01-10T17:58:44.385Z,49.19
2023-01-10T18:00:47.542Z,49.16
2023-01-10T18:02:49.553Z,49.02
2023-01-10T18:04:51.363Z,49.05
2023-01-10T18:06:53.211Z,48.98
2023-01-10T18:08:54.923Z,49.08
2023-01-10T18:11:00.429Z,48.88
2023-01-10T18:13:03.589Z,49.18
2023-01-10T18:15:06.367Z,49.16
2023-01-10T18:17:12.003Z,49.01
2023-01-10T18:19:28.694Z,48.88
2023-01-10T18:21:30.471Z,48.43
2023-01-10T18:23:32.383Z,48.89
2023-01-10T18:25:38.620Z,48.43
2023-01-10T18:27:43.139Z,48.66
2023-01-10T18:29:52.050Z,48.43
2023-01-10T18:31:55.785Z,48.74
2023-01-10T18:33:58.839Z,48.65
2023-01-10T18:36:06.637Z,48.19
2023-01-10T18:38:08.314Z,48.14
2023-01-10T18:40:11.040Z,48.05
2023-01-10T18:42:13.731Z,48.39
2023-01-10T18:44:18.389Z,48.36
2023-01-10T18:46:22.184Z,47.76
2023-01-10T18:48:25.816Z,48.12
2023-01-10T18:50:28.947Z,47.73
2023-01-10T18:52:30.609Z,47.89
2023-01-10T18:54:32.332Z,47.66
2023-01-10T18:56:34.066Z,47.78
2023-01-10T18:58:37.357Z,47.76
2023-01-10T19:00:39.026Z,47.69
2023-01-10T19:02:46.871Z,48.05
2023-01-10T19:04:48.660Z,48.09
2023-01-10T19:06:54.893Z,48.22
2023-01-10T19:08:59.748Z,48.25
2023-01-10T19:11:13.379Z,47.79
2023-01-10T19:13:15.953Z,47.89
2023-01-10T19:15:33.400Z,47.95
2023-01-10T19:17:55.671Z,47.79
2023-01-10T19:19:57.510Z,48.47
2023-01-10T19:22:00.619Z,47.80
2023-01-10T19:24:07.027Z,47.94
2023-01-10T19:26:14.605Z,48.15
2023-01-10T19:28:16.575Z,48.21
2023-01-10T19:30:18.384Z,48.29
2023-01-10T19:32:23.021Z,48.53
2023-01-10T19:34:27.180Z,48.68
2023-01-10T19:36:29.470Z,49.08
2023-01-10T19:38:35.494Z,48.92
2023-01-10T19:40:37.238Z,49.46
2023-01-10T19:42:39.700Z,49.55
2023-01-10T19:44:44.347Z,49.88
2023-01-10T19:46:48.812Z,50.49
2023-01-10T19:48:50.573Z,50.27
2023-01-10T19:50:54.506Z,50.67
2023-01-10T19:52:56.163Z,50.72
2023-01-10T19:54:59.447Z,50.35
2023-01-10T19:57:18.925Z,50.93
2023-01-10T19:59:22.449Z,50.86
2023-01-10T20:01:30.272Z,51.31
2023-01-10T20:03:34.069Z,51.17
2023-01-10T20:05:38.055Z,51.82
2023-01-10T20:07:42.623Z,52.23
2023-01-10T20:09:58.710Z,51.44
2023-01-10T20:12:01.847Z,51.64
2023-01-10T20:14:04.483Z,51.27
2023-01-10T20:16:07.267Z,51.19
2023-01-10T20:18:08.985Z,50.85
2023-01-10T20:20:13.323Z,50.82
2023-01-10T20:22:15.608Z,50.92
2023-01-10T20:24:25.974Z,50.80
2023-01-10T20:26:31.865Z,50.72
2023-01-10T20:28:36.154Z,50.79
2023-01-10T20:30:37.831Z,50.63
2023-01-10T20:32:41.148Z,50.54
2023-01-10T20:35:04.555Z,50.12
2023-01-10T20:37:14.120Z,50.51
2023-01-10T20:39:15.948Z,50.18
2023-01-10T20:41:19.468Z,49.56
2023-01-10T20:43:25.893Z,49.67
2023-01-10T20:45:29.004Z,50.15
2023-01-10T20:47:30.817Z,50.47
2023-01-10T20:49:35.530Z,50.52
2023-01-10T20:51:40.097Z,50.20
2023-01-10T20:53:43.207Z,49.78
2023-01-10T20:55:53.468Z,49.56
2023-01-10T20:58:03.739Z,49.95
2023-01-10T21:00:06.385Z,49.77
2023-01-10T21:02:11.117Z,50.05
2023-01-10T21:04:19.652Z,49.79
2023-01-10T21:06:24.088Z,49.71
2023-01-10T21:08:30.272Z,49.83
2023-01-10T21:10:42.886Z,49.55
2023-01-10T21:12:44.740Z,50.14
2023-01-10T21:14:50.083Z,50.11
2023-01-10T21:16:59.706Z,50.25
2023-01-10T21:19:02.939Z,50.59
2023-01-10T21:21:08.428Z,50.15
2023-01-10T21:23:14.857Z,50.21
2023-01-10T21:25:20.014Z,50.25
2023-01-10T21:27:21.796Z,50.50
2023-01-10T21:29:25.837Z,50.44
2023-01-10T21:31:34.039Z,50.14
2023-01-10T21:33:38.753Z,50.08
2023-01-10T21:35:43.281Z,50.28
2023-01-10T21:37:44.982Z,50.35
2023-01-10T21:39:46.598Z,50.29
2023-01-10T21:41:54.126Z,50.83
2023-01-10T21:43:55.841Z,50.42
2023-01-10T21:45:58.135Z,50.86
2023-01-10T21:47:59.784Z,50.51
2023-01-10T21:50:01.525Z,50.95
2023-01-10T21:52:04.920Z,51.16
2023-01-10T21:54:06.582Z,51.31
2023-01-10T21:56:08.613Z,51.56
2023-01-10T21:58:13.489Z,51.99
2023-01-10T22:00:15.990Z,51.80
2023-01-10T22:02:19.073Z,51.20
2023-01-10T22:04:20.980Z,51.58
2023-01-10T22:06:22.743Z,51.46
2023-01-10T22:08:25.826Z,51.35
2023-01-10T22:10:27.526Z,52.11
2023-01-10T22:12:29.136Z,52.43
2023-01-10T22:14:30.809Z,52.64
2023-01-10T22:16:32.547Z,53.00
2023-01-10T22:18:34.159Z,53.40
2023-01-10T22:20:36.013Z,54.14
2023-01-10T22:22:37.734Z,54.51
2023-01-10T22:24:41.991Z,54.76
2023-01-10T22:26:43.733Z,55.20
2023-01-10T22:28:47.932Z,54.79
2023-01-10T22:30:49.646Z,54.87
2023-01-10T22:32:55.230Z,54.89
2023-01-10T22:34:56.821Z,54.77
2023-01-10T22:36:59.188Z,54.60
2023-01-10T22:39:00.895Z,54.47
2023-01-10T22:41:08.745Z,54.35
2023-01-10T22:43:10.438Z,54.32
2023-01-10T22:45:12.086Z,54.20
2023-01-10T22:47:13.712Z,53.99
2023-01-10T22:49:15.364Z,53.96
2023-01-10T22:51:18.732Z,53.72
2023-01-10T22:53:20.331Z,53.54
2023-01-10T22:55:22.048Z,53.95
2023-01-10T22:57:25.217Z,53.70
2023-01-10T22:59:27.669Z,53.69
2023-01-10T23:01:29.300Z,53.81
2023-01-10T23:03:30.993Z,54.01
2023-01-10T23:05:32.670Z,53.87
2023-01-10T23:07:34.329Z,54.18
2023-01-10T23:09:36.080Z,53.87
2023-01-10T23:11:37.771Z,54.03
2023-01-10T23:13:40.786Z,53.66
2023-01-10T23:15:42.496Z,53.95
2023-01-10T23:17:44.108Z,53.92
2023-01-10T23:19:45.658Z,54.03
2023-01-10T23:21:47.412Z,54.00
2023-01-10T23:23:49.072Z,53.70
2023-01-10T23:25:51.417Z,53.86
2023-01-10T23:27:53.567Z,54.12
2023-01-10T23:29:56.560Z,54.13
2023-01-10T23:31:58.168Z,54.27
2023-01-10T23:33:59.964Z,54.00
2023-01-10T23:36:01.795Z,54.09
2023-01-10T23:38:03.456Z,54.33
2023-01-10T23:40:06.407Z,54.43
2023-01-10T23:42:10.160Z,54.75
2023-01-10T23:44:12.000Z,55.07
2023-01-10T23:46:15.210Z,55.10
2023-01-10T23:48:20.170Z,55.84
2023-01-10T23:50:21.778Z,56.50
2023-01-10T23:52:23.483Z,56.62
2023-01-10T23:54:25.216Z,56.80
2023-01-10T23:56:26.864Z,57.12
2023-01-10T23:58:28.504Z,57.05
